LDPN weather

Unije Airport
Unije Island, Primorje-Gorski Kotar County, Croatia

Public forecast

Using degrees Celsius for public forecast. Weather courtesy of forecast.io.

METAR (pilot weather report)

Report is more than 6 hours old.

Closest report is Lošinj Island Airport, 7.5 nm (13.9 km) ESE. Retrieved 2019/05/19 18:00 UTC (3 days ago):

LDLO 191800Z 07008KT 6000 -RA FEW010 SCT020 BKN050 14/13 Q1004

TAF (pilot weather forecast)

Forecast is more than 12 hours old.

Closest forecast is Lošinj Island Airport, 7.5 nm (13.9 km) ESE. Retrieved 2019/05/19 12:27 UTC (3 days ago):

TAF LDLO 191125Z 1912/2012 16010KT 9999 BKN040 TX18/1914Z TN14/2000Z PROB30 TEMPO 1912/1915 TSRA FEW020TCU FEW025CB BKN030 BECMG 1917/1919 22012KT PROB30 TEMPO 1920/2002 TSRA FEW020TCU FEW025CB BKN030